UTTT/TAS METAR and TAF weather

Enter ICAO airport designator
Station Type Date Time Source
UTTT METAR 2020/09/22 23:30 UTC NOAA

UTTT 222330Z 01008KT CAVOK 13/M04 Q1020 R08R/CLRD70 NOSIG


Station Type Date Time Source
UTTT Decoded METAR 2020/09/22 23:30 UTC NOAA

Tashkent, Uzbekistan (UTTT) 41-16N 069-16E 488M
Sep 22, 2020 - 07:30 PM EDT / 2020.09.22 2330 UTC
Wind: from the N (010 degrees) at 9 MPH (8 KT):0
Visibility: greater than 7 mile(s):0
Temperature: 55 F (13 C)
Dew Point: 24 F (-4 C)
Relative Humidity: 30%
Pressure (altimeter): 30.12 in. Hg (1020 hPa)
ob: UTTT 222330Z 01008KT CAVOK 13/M04 Q1020 R08R/CLRD70 NOSIG
cycle: 23

Station Type Date Time Source
UTTT TAF 2020/09/22 18:09 UTC NOAA

TAF UTTT 221700Z 2218/2318 36010KT 7000 NSC

Example: see airport list